createdAt,value
2019-05-17T00:02:13.366Z,5.40
2019-05-17T00:04:42.293Z,5.30
2019-05-17T00:07:53.930Z,6.13
2019-05-17T00:10:23.227Z,6.10
2019-05-17T00:12:52.179Z,6.27
2019-05-17T00:15:23.981Z,6.10
2019-05-17T00:17:52.889Z,5.97
2019-05-17T00:20:21.679Z,5.87
2019-05-17T00:22:50.511Z,6.93
2019-05-17T00:25:19.515Z,6.47
2019-05-17T00:27:48.312Z,6.47
2019-05-17T00:30:17.753Z,6.17
2019-05-17T00:32:57.172Z,6.90
2019-05-17T00:35:18.843Z,7.47
2019-05-17T00:37:47.730Z,6.20
2019-05-17T00:40:16.980Z,6.67
2019-05-17T00:42:48.132Z,6.73
2019-05-17T00:45:17.746Z,7.13
2019-05-17T00:47:46.957Z,7.03
2019-05-17T00:50:18.033Z,6.33
2019-05-17T00:52:47.620Z,6.83
2019-05-17T00:55:17.607Z,6.87
2019-05-17T00:57:47.505Z,7.40
2019-05-17T01:00:19.077Z,6.70
2019-05-17T01:02:49.202Z,7.10
2019-05-17T01:05:18.174Z,6.87
2019-05-17T01:07:47.302Z,7.60
2019-05-17T01:10:16.964Z,6.70
2019-05-17T01:12:59.639Z,7.77
2019-05-17T01:15:28.575Z,7.37
2019-05-17T01:17:57.411Z,7.60
2019-05-17T01:20:27.728Z,7.30
2019-05-17T01:22:56.797Z,7.87
2019-05-17T01:25:27.291Z,7.90
2019-05-17T01:28:03.803Z,7.53
2019-05-17T01:30:33.667Z,7.40
2019-05-17T01:33:02.453Z,7.60
2019-05-17T01:35:31.330Z,8.23
2019-05-17T01:38:00.131Z,7.57
2019-05-17T01:40:29.111Z,7.07
2019-05-17T01:42:58.237Z,7.60
2019-05-17T01:45:27.584Z,7.70
2019-05-17T01:47:57.821Z,7.20
2019-05-17T01:50:26.723Z,6.90
2019-05-17T01:52:56.580Z,7.23
2019-05-17T01:55:26.545Z,6.93
2019-05-17T01:58:00.398Z,6.67
2019-05-17T02:00:29.362Z,7.23
2019-05-17T02:02:58.303Z,7.13
2019-05-17T02:05:27.506Z,6.67
2019-05-17T02:07:56.946Z,6.60
2019-05-17T02:10:27.158Z,7.27
2019-05-17T02:12:57.022Z,7.13
2019-05-17T02:15:26.751Z,6.53
2019-05-17T02:17:57.395Z,7.27
2019-05-17T02:20:27.523Z,6.43
2019-05-17T02:22:56.573Z,6.87
2019-05-17T02:25:27.268Z,6.90
2019-05-17T02:27:56.219Z,6.17
2019-05-17T02:30:33.750Z,6.57
2019-05-17T02:33:06.645Z,6.40
2019-05-17T02:35:35.469Z,6.63
2019-05-17T02:38:04.358Z,6.40
2019-05-17T02:40:34.327Z,6.87
2019-05-17T02:43:03.726Z,6.67
2019-05-17T02:45:33.295Z,7.37
2019-05-17T02:48:03.624Z,6.43
2019-05-17T02:50:33.549Z,7.23
2019-05-17T02:53:04.501Z,6.73
2019-05-17T02:55:43.538Z,6.50
2019-05-17T02:58:12.884Z,6.50
2019-05-17T03:00:44.279Z,7.10
2019-05-17T03:03:13.504Z,6.43
2019-05-17T03:05:43.238Z,6.97
2019-05-17T03:08:12.461Z,7.37
2019-05-17T03:10:43.300Z,7.30
2019-05-17T03:13:18.165Z,6.70
2019-05-17T03:15:46.131Z,6.40
2019-05-17T03:18:14.977Z,6.93
2019-05-17T03:20:53.311Z,7.43
2019-05-17T03:23:23.410Z,7.03
2019-05-17T03:25:52.850Z,7.60
2019-05-17T03:28:23.483Z,7.23
2019-05-17T03:30:56.957Z,7.57
2019-05-17T03:33:27.539Z,7.60
2019-05-17T03:35:57.558Z,7.87
2019-05-17T03:38:28.919Z,7.33
2019-05-17T03:41:17.175Z,8.23
2019-05-17T03:43:28.412Z,8.10
2019-05-17T03:46:22.935Z,8.47
2019-05-17T03:48:53.211Z,8.23
2019-05-17T03:51:23.337Z,7.90
2019-05-17T03:53:53.174Z,8.37
2019-05-17T03:56:22.531Z,8.63
2019-05-17T03:58:53.031Z,8.13
2019-05-17T04:01:23.202Z,8.33
2019-05-17T04:04:02.569Z,8.30
2019-05-17T04:06:32.648Z,8.50
2019-05-17T04:09:03.834Z,8.80
2019-05-17T04:11:36.032Z,9.33
2019-05-17T04:14:03.168Z,9.07
2019-05-17T04:16:33.848Z,8.77
2019-05-17T04:19:03.292Z,8.83
2019-05-17T04:21:34.123Z,9.00
2019-05-17T04:24:03.373Z,8.90
2019-05-17T04:26:32.871Z,8.63
2019-05-17T04:29:03.561Z,8.80
2019-05-17T04:31:35.405Z,9.30
2019-05-17T04:34:16.009Z,9.40
2019-05-17T04:36:45.120Z,9.87
2019-05-17T04:39:13.993Z,9.17
2019-05-17T04:41:49.740Z,9.50
2019-05-17T04:44:14.288Z,9.83
2019-05-17T04:46:43.444Z,9.57
2019-05-17T04:49:13.928Z,9.73
2019-05-17T04:51:43.907Z,9.60
2019-05-17T04:54:13.920Z,10.17
2019-05-17T04:56:46.380Z,9.83
2019-05-17T04:59:18.308Z,9.57
2019-05-17T05:01:48.358Z,9.33
2019-05-17T05:04:17.213Z,9.50
2019-05-17T05:06:46.010Z,10.03
2019-05-17T05:09:14.843Z,8.77
2019-05-17T05:12:01.440Z,9.43
2019-05-17T05:14:27.821Z,8.63
2019-05-17T05:17:38.038Z,9.33
2019-05-17T05:20:07.321Z,9.10
2019-05-17T05:22:36.621Z,9.03
2019-05-17T05:25:14.156Z,9.13
2019-05-17T05:27:43.366Z,8.77
2019-05-17T05:30:12.744Z,8.77
2019-05-17T05:33:17.695Z,9.10
2019-05-17T05:35:55.615Z,8.33
2019-05-17T05:39:15.244Z,7.70
2019-05-17T05:41:44.529Z,7.53
2019-05-17T05:44:16.077Z,7.80
2019-05-17T05:46:45.667Z,7.57
2019-05-17T05:49:14.630Z,7.57
2019-05-17T05:51:43.613Z,8.17
2019-05-17T05:54:12.608Z,8.37
2019-05-17T05:57:02.102Z,8.80
2019-05-17T05:59:35.478Z,8.47
2019-05-17T06:02:04.746Z,9.10
2019-05-17T06:04:37.906Z,9.13
2019-05-17T06:07:06.804Z,8.63
2019-05-17T06:09:35.900Z,9.03
2019-05-17T06:24:32.618Z,9.27
2019-05-17T06:27:02.116Z,10.37
2019-05-17T06:29:41.536Z,9.13
2019-05-17T06:32:11.868Z,8.90
2019-05-17T06:34:42.280Z,8.33
2019-05-17T06:37:12.985Z,8.60
2019-05-17T06:39:42.097Z,8.43
2019-05-17T06:42:17.216Z,8.03
2019-05-17T06:44:46.028Z,8.33
2019-05-17T06:47:14.958Z,8.10
2019-05-17T06:49:44.103Z,8.13
2019-05-17T06:52:13.050Z,7.70
2019-05-17T06:54:42.052Z,6.63
2019-05-17T06:57:12.808Z,7.03
2019-05-17T06:59:42.122Z,6.50
2019-05-17T07:02:11.032Z,7.07
2019-05-17T07:04:40.107Z,7.60
2019-05-17T07:07:26.893Z,6.47
2019-05-17T07:09:56.989Z,6.57
2019-05-17T07:12:26.026Z,6.80
2019-05-17T07:14:58.112Z,7.40
2019-05-17T07:17:25.612Z,7.00
2019-05-17T07:19:54.524Z,7.57
2019-05-17T07:22:23.310Z,7.13
2019-05-17T07:24:52.200Z,6.70
2019-05-17T07:27:21.175Z,7.30
2019-05-17T07:29:50.111Z,6.57
2019-05-17T07:32:19.389Z,7.37
2019-05-17T07:34:50.191Z,7.50
2019-05-17T07:37:19.546Z,7.17
2019-05-17T07:40:00.912Z,6.70
2019-05-17T07:42:19.621Z,6.70
2019-05-17T07:44:49.679Z,6.07
2019-05-17T07:47:20.320Z,6.43
2019-05-17T07:49:49.517Z,6.40
2019-05-17T07:52:20.625Z,6.70
2019-05-17T07:54:50.837Z,6.77
2019-05-17T07:57:20.719Z,6.40
2019-05-17T07:59:50.914Z,5.90
2019-05-17T08:02:19.925Z,6.00
2019-05-17T08:04:50.086Z,6.40
2019-05-17T08:07:19.670Z,6.57
2019-05-17T08:09:50.640Z,6.10
2019-05-17T08:12:19.953Z,6.30
2019-05-17T08:14:50.303Z,6.47
2019-05-17T08:17:19.906Z,6.07
2019-05-17T08:19:49.796Z,6.53
2019-05-17T08:22:21.683Z,6.50
2019-05-17T08:24:51.052Z,6.63
2019-05-17T08:27:20.219Z,6.30
2019-05-17T08:29:49.874Z,6.47
2019-05-17T08:32:20.772Z,6.50
2019-05-17T08:34:51.675Z,6.80
2019-05-17T08:37:20.476Z,6.40
2019-05-17T08:39:50.510Z,6.03
2019-05-17T08:42:20.490Z,6.23
2019-05-17T08:44:49.807Z,5.53
2019-05-17T08:47:21.000Z,6.77
2019-05-17T08:49:52.113Z,6.10
2019-05-17T08:52:21.361Z,7.10
2019-05-17T08:54:52.577Z,6.87
2019-05-17T08:57:21.724Z,6.10
2019-05-17T08:59:51.055Z,6.67
2019-05-17T09:02:20.156Z,6.57
2019-05-17T09:04:49.782Z,7.07
2019-05-17T09:07:20.402Z,6.60
2019-05-17T09:09:50.297Z,6.50
2019-05-17T09:12:20.610Z,6.77
2019-05-17T09:14:49.773Z,6.50
2019-05-17T09:17:19.378Z,6.70
2019-05-17T09:19:50.972Z,6.83
2019-05-17T09:22:20.250Z,6.80
2019-05-17T09:24:50.033Z,7.10
2019-05-17T09:27:19.808Z,6.97
2019-05-17T09:29:49.707Z,7.17
2019-05-17T09:35:46.307Z,6.17
2019-05-17T09:38:15.119Z,6.40
2019-05-17T09:40:44.048Z,6.57
2019-05-17T09:43:14.939Z,6.90
2019-05-17T09:45:43.671Z,6.90
2019-05-17T09:48:13.151Z,6.57
2019-05-17T09:50:42.103Z,6.70
2019-05-17T09:53:12.288Z,6.77
2019-05-17T09:56:21.719Z,6.47
2019-05-17T09:58:50.826Z,6.70
2019-05-17T10:01:19.886Z,5.87
2019-05-17T10:03:50.638Z,6.87
2019-05-17T10:06:20.217Z,6.43
2019-05-17T10:08:50.163Z,6.07
2019-05-17T10:11:20.482Z,5.97
2019-05-17T10:13:50.000Z,5.20
2019-05-17T10:16:20.325Z,6.23
2019-05-17T10:18:49.781Z,6.60
2019-05-17T10:21:19.856Z,6.20
2019-05-17T10:23:49.683Z,6.63
2019-05-17T10:26:19.757Z,6.60
2019-05-17T10:28:51.604Z,6.20
2019-05-17T10:31:20.746Z,6.20
2019-05-17T10:33:50.082Z,6.10
2019-05-17T10:36:20.203Z,5.80
2019-05-17T10:38:50.254Z,5.50
2019-05-17T10:41:19.864Z,5.33
2019-05-17T10:43:50.111Z,5.50
2019-05-17T10:46:20.648Z,5.77
2019-05-17T10:48:50.163Z,5.77
2019-05-17T10:51:20.255Z,5.40
2019-05-17T10:53:51.232Z,5.70
2019-05-17T10:56:23.403Z,5.20
2019-05-17T10:58:50.601Z,5.47
2019-05-17T11:01:20.098Z,6.07
2019-05-17T11:03:50.258Z,6.07
2019-05-17T11:06:19.795Z,5.87
2019-05-17T11:08:50.117Z,5.50
2019-05-17T11:11:20.126Z,5.50
2019-05-17T11:16:17.162Z,5.77
2019-05-17T11:18:45.960Z,5.60
2019-05-17T11:21:14.915Z,5.47
2019-05-17T11:23:43.942Z,5.60
2019-05-17T11:26:13.055Z,5.27
2019-05-17T11:28:42.012Z,5.40
2019-05-17T11:31:10.900Z,5.73
2019-05-17T11:33:39.808Z,6.13
2019-05-17T11:36:08.616Z,6.20
2019-05-17T11:38:37.593Z,5.90
2019-05-17T11:41:20.547Z,5.90
2019-05-17T11:43:37.037Z,5.33
2019-05-17T11:46:07.767Z,5.73
2019-05-17T11:48:36.957Z,6.00
2019-05-17T11:51:06.085Z,5.83
2019-05-17T11:53:35.044Z,5.50
2019-05-17T11:56:04.380Z,5.70
2019-05-17T11:58:33.172Z,5.87
2019-05-17T12:01:02.051Z,5.67
2019-05-17T12:03:30.936Z,6.10
2019-05-17T12:06:00.078Z,4.90
2019-05-17T12:08:28.900Z,5.20
2019-05-17T12:10:57.866Z,6.17
2019-05-17T12:13:26.758Z,6.40
2019-05-17T12:15:55.763Z,6.27
2019-05-17T12:18:24.572Z,6.27
2019-05-17T12:20:53.461Z,6.10
2019-05-17T12:23:22.363Z,6.60
2019-05-17T12:25:51.252Z,6.03
2019-05-17T12:28:20.109Z,6.07
2019-05-17T12:30:49.153Z,5.70
2019-05-17T12:33:18.194Z,6.67
2019-05-17T12:35:47.064Z,5.63
2019-05-17T12:38:16.258Z,6.47
2019-05-17T12:40:45.375Z,6.17
2019-05-17T12:43:14.450Z,6.10
2019-05-17T12:45:43.333Z,6.53
2019-05-17T12:48:13.266Z,5.70
2019-05-17T12:50:42.374Z,6.00
2019-05-17T12:53:11.288Z,6.00
2019-05-17T12:55:40.174Z,5.63
2019-05-17T12:58:09.065Z,5.80
2019-05-17T13:00:37.935Z,5.40
2019-05-17T13:03:06.858Z,5.70
2019-05-17T13:05:35.802Z,5.87
2019-05-17T13:08:05.970Z,6.40
2019-05-17T13:10:34.879Z,6.23
2019-05-17T13:13:05.461Z,5.63
2019-05-17T13:15:34.390Z,6.13
2019-05-17T13:18:03.769Z,5.80
2019-05-17T13:20:33.692Z,5.50
2019-05-17T13:23:02.888Z,5.13
2019-05-17T13:25:35.188Z,5.47
2019-05-17T13:28:04.278Z,5.50
2019-05-17T13:30:33.254Z,5.20
2019-05-17T13:33:13.177Z,4.77
2019-05-17T13:35:42.267Z,5.17
2019-05-17T13:38:11.685Z,5.33
2019-05-17T13:40:40.698Z,5.40
2019-05-17T13:43:10.043Z,5.70
2019-05-17T13:45:39.091Z,5.70
2019-05-17T13:48:08.295Z,5.23
2019-05-17T13:54:17.235Z,5.60
2019-05-17T13:56:46.211Z,5.60
2019-05-17T13:59:15.133Z,5.90
2019-05-17T14:01:44.171Z,5.67
2019-05-17T14:04:13.320Z,5.77
2019-05-17T14:06:42.444Z,5.57
2019-05-17T14:09:11.558Z,5.57
2019-05-17T14:11:40.484Z,5.93
2019-05-17T14:14:09.262Z,5.50
2019-05-17T14:16:38.252Z,6.13
2019-05-17T14:19:07.231Z,4.53
2019-05-17T14:21:36.278Z,5.53
2019-05-17T14:24:05.439Z,4.90
2019-05-17T14:26:35.472Z,4.93
2019-05-17T14:29:04.628Z,5.83
2019-05-17T14:31:33.563Z,5.67
2019-05-17T14:34:02.953Z,5.07
2019-05-17T14:36:31.924Z,5.63
2019-05-17T14:39:00.963Z,5.80
2019-05-17T14:41:29.936Z,5.67
2019-05-17T14:43:58.716Z,5.90
2019-05-17T14:46:27.617Z,5.90
2019-05-17T14:48:56.649Z,6.03
2019-05-17T14:51:25.690Z,6.53
2019-05-17T14:53:54.784Z,7.00
2019-05-17T14:56:23.731Z,6.13
2019-05-17T14:58:52.663Z,6.90
2019-05-17T15:01:21.735Z,7.00
2019-05-17T15:03:50.875Z,5.90
2019-05-17T15:06:19.948Z,5.97
2019-05-17T15:08:48.799Z,6.77
2019-05-17T15:11:17.749Z,6.57
2019-05-17T15:13:47.703Z,6.03
2019-05-17T15:16:16.649Z,7.03
2019-05-17T15:18:45.556Z,6.87
2019-05-17T15:21:14.543Z,6.30
2019-05-17T15:23:43.509Z,5.97
2019-05-17T15:26:12.571Z,6.60
2019-05-17T15:28:41.629Z,5.70
2019-05-17T15:31:10.696Z,5.87
2019-05-17T15:33:39.503Z,6.03
2019-05-17T15:36:10.029Z,6.03
2019-05-17T15:38:39.080Z,5.83
2019-05-17T15:41:08.053Z,6.37
2019-05-17T15:43:36.938Z,7.00
2019-05-17T15:46:06.172Z,6.08
2019-05-17T15:48:35.082Z,5.80
2019-05-17T15:51:05.585Z,6.28
2019-05-17T15:53:34.382Z,6.17
2019-05-17T15:56:05.464Z,5.63
2019-05-17T15:58:35.512Z,6.00
2019-05-17T16:01:05.488Z,6.20
2019-05-17T16:03:36.026Z,5.77
2019-05-17T16:06:05.557Z,5.43
2019-05-17T16:08:38.063Z,5.47
2019-05-17T16:11:24.433Z,5.80
2019-05-17T16:14:31.158Z,5.57
2019-05-17T16:17:48.544Z,4.77
2019-05-17T16:20:21.258Z,5.00
2019-05-17T16:22:51.550Z,4.67
2019-05-17T16:25:21.833Z,5.00
2019-05-17T16:27:50.979Z,5.47
2019-05-17T16:30:21.254Z,5.20
2019-05-17T16:32:50.761Z,5.40
2019-05-17T16:35:20.467Z,5.00
2019-05-17T16:37:49.418Z,5.77
2019-05-17T16:40:31.276Z,5.23
2019-05-17T16:43:16.768Z,5.70
2019-05-17T16:45:33.514Z,5.50
2019-05-17T16:48:02.937Z,5.40
2019-05-17T16:50:32.209Z,6.10
2019-05-17T16:53:06.046Z,5.83
2019-05-17T16:55:33.118Z,5.67
2019-05-17T16:58:04.357Z,5.43
2019-05-17T17:00:35.843Z,5.50
2019-05-17T17:03:09.119Z,5.33
2019-05-17T17:05:38.440Z,5.73
2019-05-17T17:08:07.680Z,5.57
2019-05-17T17:10:37.063Z,5.77
2019-05-17T17:13:07.807Z,6.23
2019-05-17T17:15:37.029Z,5.83
2019-05-17T17:18:06.660Z,5.90
2019-05-17T17:20:36.871Z,6.03
2019-05-17T17:23:53.687Z,7.37
2019-05-17T17:34:22.151Z,7.10
2019-05-17T17:37:03.400Z,7.60
2019-05-17T17:39:34.942Z,7.07
2019-05-17T17:42:13.762Z,7.40
2019-05-17T17:47:57.511Z,7.73
2019-05-17T17:50:44.244Z,7.37
2019-05-17T17:53:41.348Z,7.23
2019-05-17T18:03:41.084Z,7.27
2019-05-17T18:09:23.281Z,7.23
2019-05-17T18:11:57.343Z,7.40
2019-05-17T18:14:32.817Z,6.60
2019-05-17T18:20:45.269Z,6.70
2019-05-17T18:23:14.699Z,7.20
2019-05-17T18:25:44.564Z,6.27
2019-05-17T18:28:17.252Z,7.17
2019-05-17T18:31:22.187Z,6.77
2019-05-17T18:34:13.287Z,6.80
2019-05-17T18:36:58.403Z,6.63
2019-05-17T18:43:34.033Z,7.70
2019-05-17T18:46:13.178Z,7.50
2019-05-17T18:48:42.413Z,7.30
2019-05-17T18:51:12.405Z,7.07
2019-05-17T18:57:15.250Z,7.63
2019-05-17T18:59:47.052Z,7.03
2019-05-17T19:02:16.742Z,7.07
2019-05-17T19:04:46.261Z,7.77
2019-05-17T19:07:58.647Z,7.70
2019-05-17T19:10:28.671Z,7.07
2019-05-17T19:12:58.129Z,7.30
2019-05-17T19:15:27.707Z,7.40
2019-05-17T19:17:59.317Z,7.30
2019-05-17T19:20:28.628Z,7.60
2019-05-17T19:22:57.902Z,7.60
2019-05-17T19:25:27.310Z,7.60
2019-05-17T19:29:04.145Z,7.40
2019-05-17T19:31:33.688Z,6.93
2019-05-17T19:34:04.926Z,6.90
2019-05-17T19:36:34.104Z,7.80
2019-05-17T19:39:05.005Z,8.00
2019-05-17T19:41:34.459Z,7.60
2019-05-17T19:45:14.864Z,7.80
2019-05-17T19:47:44.456Z,6.93
2019-05-17T19:50:13.746Z,7.50
2019-05-17T19:52:42.796Z,7.83
2019-05-17T19:55:12.730Z,8.03
2019-05-17T19:57:41.957Z,9.00
2019-05-17T20:00:12.380Z,7.40
2019-05-17T20:02:41.574Z,7.73
2019-05-17T20:05:11.033Z,8.03
2019-05-17T20:07:40.346Z,8.17
2019-05-17T20:10:11.145Z,8.43
2019-05-17T20:12:40.391Z,8.77
2019-05-17T20:15:17.392Z,9.07
2019-05-17T20:17:42.215Z,9.30
2019-05-17T20:20:16.393Z,8.83
2019-05-17T20:22:45.772Z,9.70
2019-05-17T20:25:15.393Z,9.27
2019-05-17T20:28:06.969Z,10.37
2019-05-17T20:30:36.128Z,10.20
2019-05-17T20:33:05.504Z,10.87
2019-05-17T20:35:34.833Z,10.00
2019-05-17T20:38:04.443Z,10.23
2019-05-17T20:40:34.175Z,10.50
2019-05-17T20:43:03.650Z,10.07
2019-05-17T20:45:33.760Z,10.80
2019-05-17T20:48:03.174Z,10.80
2019-05-17T20:50:33.508Z,11.30
2019-05-17T20:53:16.540Z,11.57
2019-05-17T20:55:33.631Z,11.97
2019-05-17T20:58:03.843Z,12.13
2019-05-17T21:00:33.150Z,12.50
2019-05-17T21:03:02.537Z,12.43
2019-05-17T21:05:31.863Z,12.73
2019-05-17T21:08:01.021Z,13.23
2019-05-17T21:10:30.421Z,14.43
2019-05-17T21:12:59.680Z,14.33
2019-05-17T21:15:29.214Z,14.87
2019-05-17T21:17:59.211Z,15.00
2019-05-17T21:20:28.527Z,14.67
2019-05-17T21:22:58.012Z,15.47
2019-05-17T21:25:27.339Z,14.97
2019-05-17T21:27:57.596Z,15.13
2019-05-17T21:30:26.740Z,15.23
2019-05-17T21:32:55.904Z,15.70
2019-05-17T21:35:25.115Z,15.93
2019-05-17T21:37:54.355Z,15.17
2019-05-17T21:40:23.692Z,14.80
2019-05-17T21:42:52.877Z,15.17
2019-05-17T21:45:22.274Z,14.93
2019-05-17T21:47:51.452Z,16.00
2019-05-17T21:50:20.735Z,15.00
2019-05-17T21:52:50.071Z,15.07
2019-05-17T21:55:21.078Z,15.17
2019-05-17T21:57:50.377Z,14.97
2019-05-17T22:00:57.543Z,15.10
2019-05-17T22:03:26.578Z,15.13
2019-05-17T22:05:56.007Z,14.40
2019-05-17T22:08:25.721Z,14.97
2019-05-17T22:10:54.937Z,15.67
2019-05-17T22:13:23.990Z,15.23
2019-05-17T22:15:53.124Z,14.93
2019-05-17T22:18:24.639Z,14.90
2019-05-17T22:20:54.236Z,15.67
2019-05-17T22:23:28.323Z,15.73
2019-05-17T22:25:58.000Z,15.83
2019-05-17T22:28:27.127Z,15.67
2019-05-17T22:30:56.213Z,16.37
2019-05-17T22:33:31.379Z,16.63
2019-05-17T22:36:00.554Z,16.37
2019-05-17T22:38:29.652Z,17.57
2019-05-17T22:40:58.587Z,15.77
2019-05-17T22:43:28.077Z,16.50
2019-05-17T22:45:56.959Z,16.60
2019-05-17T22:48:25.725Z,16.47
2019-05-17T22:50:55.450Z,17.23
2019-05-17T22:53:24.278Z,16.90
2019-05-17T22:55:53.666Z,17.33
2019-05-17T22:58:22.455Z,17.17
2019-05-17T23:00:51.357Z,17.00
2019-05-17T23:03:20.137Z,17.80
2019-05-17T23:05:48.937Z,17.17
2019-05-17T23:08:17.907Z,18.30
2019-05-17T23:10:46.702Z,18.00
2019-05-17T23:13:15.643Z,17.37
2019-05-17T23:16:03.925Z,18.23
2019-05-17T23:18:34.076Z,18.57
2019-05-17T23:21:03.535Z,19.30
2019-05-17T23:23:32.426Z,18.43
2019-05-17T23:26:01.319Z,18.13
2019-05-17T23:28:30.264Z,19.40
2019-05-17T23:30:59.105Z,19.43
2019-05-17T23:33:28.827Z,19.40
2019-05-17T23:35:57.615Z,20.20
2019-05-17T23:38:26.749Z,20.93
2019-05-17T23:40:55.551Z,19.23
2019-05-17T23:43:24.367Z,20.13
2019-05-17T23:45:53.287Z,20.00
2019-05-17T23:48:22.137Z,20.30
2019-05-17T23:50:50.904Z,21.00
2019-05-17T23:53:19.704Z,20.30
2019-05-17T23:55:49.522Z,20.33
2019-05-17T23:58:18.327Z,20.30
